Estación Meteorológica Peña el Pijo (Robertgarden) [ 01/30/23 14:30:33 CET ]

Fecha Hora Presion(HPa) Temp (°C) Humedad % Rocio (°C) Viento ( m/s) Direccion Lluvia 1Hora(mm) Lluvia 24H(mm) LLuvia Total(mm)
2010-Dec-30 01:01:18 1005.900 -0.7 84 -3.1         18.64
2010-Dec-30 02:03:14 1006.000 -0.9 86 -2.9         18.64
2010-Dec-30 03:01:12 1005.900 -1.1 87 -3.0         18.64
2010-Dec-30 04:01:11 1005.400 -1.1 88 -2.8         18.64
2010-Dec-30 05:01:18 1004.800 -1.2 88 -2.9         18.64
2010-Dec-30 06:01:13 1005.100 -1.6 88 -3.3         18.64
2010-Dec-30 07:01:12 1005.000 -1.7 88 -3.4         18.64
2010-Dec-30 08:01:14 1005.500 -1.5 89 -3.1         18.64
2010-Dec-30 09:01:18 1006.000 -0.7 89 -2.3         18.64
2010-Dec-30 10:01:11 1006.200 0.5 88 -1.3         18.64
2010-Dec-30 11:01:13 1006.800 1.3 86 -0.8         18.64
2010-Dec-30 12:01:14 1006.800 5.4 76 1.5         18.64
2010-Dec-30 13:01:14 1005.600 8.9 63 2.2         18.64
2010-Dec-30 14:01:13 1004.800 10.7 59 3.0         18.64
2010-Dec-30 15:01:13 1004.500 11.5 59 3.7         18.64
2010-Dec-30 16:01:15 1004.900 9.6 63 2.9         18.64
2010-Dec-30 17:01:13 1005.400 8.3 68 2.7         18.64
2010-Dec-30 18:01:14 1006.000 5.8 75 1.7         18.64
2010-Dec-30 19:01:13 1006.400 4.6 79 1.2         18.64
2010-Dec-30 20:01:15 1006.900 3.2 83 0.6         18.64
2010-Dec-30 21:01:12 1007.400 2.6 85 0.3         18.64
2010-Dec-30 22:01:12 1007.500 2.7 85 0.4         18.64
2010-Dec-30 23:01:13 1007.800 2.3 86 0.2         18.64

Temperatura Máxima:11°    Temperatura Mínima:-1°
Presión Máxima:1007.800 Hpa    Presión Mínima:1004.500 Hpa


Volver